This is the latest recevied weather packets stored in our database for station/object DO1AA. If no packets are shown the sender has not sent any weather packets the latest 10 day(s).
| Time | Temp. | Humidity | Pressure | Rain* | Wind** | Luminosity | Snow |
|---|---|---|---|---|---|---|---|
| 1777843203 | 17.78° C | 65% | 998.8 hPa | 0 mm | - | - | - |
| 1777839603 | 18.33° C | 54% | 998.4 hPa | 0 mm | - | - | - |
| 1777837803 | 19.44° C | 49% | 998.5 hPa | 0 mm | - | - | - |
| 1777833603 | 22.78° C | 42% | 998.4 hPa | 0 mm | - | - | - |
| 1777832403 | 23.33° C | 39% | 998.1 hPa | 0 mm | - | - | - |
| 1777820403 | 28.89° C | 31% | 998.3 hPa | 0 mm | - | - | - |
| 1777813203 | 28.33° C | 29% | 999.3 hPa | 0 mm | - | - | - |
| 1777811405 | 27.78° C | 30% | 999.5 hPa | 0 mm | - | - | - |
| 1777804203 | 27.22° C | 36% | 1000.6 hPa | 0 mm | - | - | - |
| 1777801803 | 26.67° C | 36% | 1000.8 hPa | 0 mm | - | - | - |
| 1777798203 | 23.33° C | 46% | 1001.3 hPa | 0 mm | - | - | - |
| 1777779602 | 7.22° C | 90% | 1001.2 hPa | 0 mm | - | - | - |
| 1777775403 | 7.78° C | 88% | 1001.4 hPa | 0 mm | - | - | - |
| 1777774803 | 8.33° C | 87% | 1001.3 hPa | 0 mm | - | - | - |
| 1777773003 | 8.33° C | 87% | 1001.5 hPa | 0 mm | - | - | - |
| 1777772403 | 8.33° C | 87% | 1001.6 hPa | 0 mm | - | - | - |
| 1777770004 | 9.44° C | 85% | 1001.7 hPa | 0 mm | - | - | - |
| 1777769403 | 9.44° C | 85% | 1001.7 hPa | 0 mm | - | - | - |
| 1777766403 | 10.56° C | 82% | 1002.3 hPa | 0 mm | - | - | - |
| 1777764004 | 11.11° C | 79% | 1002.4 hPa | 0 mm | - | - | - |
| 1777757404 | 13.33° C | 71% | 1002.9 hPa | 0 mm | - | - | - |
| 1777750803 | 15.56° C | 64% | 1003.6 hPa | 0 mm | - | - | - |
| 1777747206 | 18.33° C | 56% | 1003.7 hPa | 0 mm | - | - | - |
| 1777746003 | 20° C | 49% | 1003.5 hPa | 0 mm | - | - | - |
| 1777745403 | 21.11° C | 44% | 1003.8 hPa | 0 mm | - | - | - |
* Rain latest hour (hover to see other rain measurements)
** Current wind speed in m/s (hover to see current wind gust speed)